Time;durP1;ratioP1;P1;durP2;ratioP2;P2;SDS_P1;SDS_P2;PMS_P1;PMS_P2;Temp;Humidity;BMP_temperature;BMP_pressure;BME280_temperature;BME280_humidity;BME280_pressure;Samples;Min_cycle;Max_cycle;Signal;HPM_P1;HPM_P2
2021/05/13 00:02:17;;;;;;;;;4.00;4.00;;;;;;;;3723898;37;18072;-63
2021/05/13 00:04:43;;;;;;;;;3.50;3.50;;;;;;;;3724285;38;18051;-61
2021/05/13 00:07:10;;;;;;;;;1.75;1.75;;;;;;;;3724779;37;18046;-61
2021/05/13 00:09:38;;;;;;;;;4.25;4.00;;;;;;;;3724119;38;18064;-61
2021/05/13 00:12:13;;;;;;;;;5.00;5.00;;;;;;;;3724458;38;21041;-61
2021/05/13 00:14:39;;;;;;;;;4.75;4.75;;;;;;;;3724559;38;21021;-62
2021/05/13 00:17:05;;;;;;;;;5.00;5.00;;;;;;;;3724603;38;21021;-62
2021/05/13 00:19:31;;;;;;;;;4.00;4.00;;;;;;;;3723999;37;18036;-62
2021/05/13 00:21:57;;;;;;;;;4.75;4.75;;;;;;;;3724484;37;21020;-61
2021/05/13 00:24:27;;;;;;;;;4.75;4.75;;;;;;;;3724619;38;18024;-62
2021/05/13 00:26:58;;;;;;;;;4.50;4.50;;;;;;;;3724667;38;18025;-62
2021/05/13 00:29:27;;;;;;;;;5.75;5.75;;;;;;;;3724746;38;21004;-62
2021/05/13 00:31:53;;;;;;;;;5.00;5.00;;;;;;;;3724532;37;20951;-62
2021/05/13 00:34:20;;;;;;;;;5.50;5.00;;;;;;;;3724663;38;21323;-62
2021/05/13 00:36:45;;;;;;;;;5.00;5.00;;;;;;;;3724279;38;20974;-62
2021/05/13 00:39:11;;;;;;;;;4.75;4.75;;;;;;;;3724637;38;21040;-61
2021/05/13 00:41:38;;;;;;;;;5.00;5.00;;;;;;;;3724722;38;18009;-62
2021/05/13 00:44:05;;;;;;;;;6.25;6.00;;;;;;;;3724623;37;18061;-62
2021/05/13 00:46:31;;;;;;;;;6.00;6.00;;;;;;;;3724517;37;20986;-61
2021/05/13 00:49:06;;;;;;;;;5.25;5.25;;;;;;;;3724082;38;21019;-63
2021/05/13 00:51:33;;;;;;;;;5.00;5.00;;;;;;;;3724528;38;20966;-63
2021/05/13 00:53:59;;;;;;;;;6.25;5.25;;;;;;;;3724497;37;20989;-61
2021/05/13 00:56:29;;;;;;;;;5.00;5.00;;;;;;;;3724628;38;20956;-62
2021/05/13 00:58:57;;;;;;;;;5.75;5.75;;;;;;;;3724441;37;20957;-63
2021/05/13 01:01:24;;;;;;;;;7.00;6.00;;;;;;;;3724480;37;20945;-62
2021/05/13 01:03:50;;;;;;;;;7.00;7.00;;;;;;;;3724634;38;20960;-62
2021/05/13 01:06:16;;;;;;;;;5.25;5.25;;;;;;;;3724148;38;20983;-62
2021/05/13 01:08:43;;;;;;;;;5.25;5.00;;;;;;;;3724504;38;20965;-62
2021/05/13 01:11:14;;;;;;;;;4.25;4.25;;;;;;;;3724527;38;17978;-62
2021/05/13 01:17:20;;;;;;;;;5.75;5.75;;;;;;;;3724299;38;20946;-63
2021/05/13 01:19:50;;;;;;;;;5.50;5.50;;;;;;;;3724509;38;20978;-61
2021/05/13 01:22:18;;;;;;;;;6.25;6.25;;;;;;;;3724204;38;20959;-62
2021/05/13 01:24:44;;;;;;;;;6.00;6.00;;;;;;;;3724584;37;20969;-62
2021/05/13 01:27:09;;;;;;;;;8.00;7.00;;;;;;;;3724105;38;20931;-62
2021/05/13 01:29:35;;;;;;;;;6.00;6.00;;;;;;;;3724751;37;20937;-62
2021/05/13 01:32:02;;;;;;;;;6.50;6.50;;;;;;;;3724578;38;17952;-62
2021/05/13 01:34:27;;;;;;;;;5.00;5.00;;;;;;;;3724798;38;17957;-62
2021/05/13 01:36:53;;;;;;;;;6.50;6.00;;;;;;;;3724746;38;20937;-62
2021/05/13 01:39:19;;;;;;;;;6.00;6.00;;;;;;;;3724677;37;18004;-61
2021/05/13 01:41:45;;;;;;;;;6.25;6.25;;;;;;;;3724540;38;17927;-62
2021/05/13 01:44:14;;;;;;;;;8.75;8.00;;;;;;;;3724402;38;17931;-61
2021/05/13 01:46:40;;;;;;;;;6.25;6.00;;;;;;;;3724628;38;20910;-61
2021/05/13 01:49:15;;;;;;;;;4.25;4.25;;;;;;;;3724834;37;17923;-61
2021/05/13 01:51:41;;;;;;;;;7.25;7.25;;;;;;;;3724243;37;17927;-62
2021/05/13 01:54:07;;;;;;;;;5.75;5.25;;;;;;;;3724725;37;20933;-63
2021/05/13 01:56:33;;;;;;;;;6.00;5.25;;;;;;;;3724222;38;17936;-61
2021/05/13 01:58:59;;;;;;;;;6.00;5.25;;;;;;;;3724349;37;17929;-62
2021/05/13 02:01:32;;;;;;;;;5.75;5.25;;;;;;;;3724567;38;20897;-61
2021/05/13 02:03:58;;;;;;;;;7.00;6.75;;;;;;;;3724295;37;17905;-62
2021/05/13 02:06:24;;;;;;;;;5.25;5.25;;;;;;;;3724714;37;20865;-62
2021/05/13 02:08:50;;;;;;;;;5.75;5.75;;;;;;;;3724339;37;17890;-61
2021/05/13 02:11:15;;;;;;;;;4.25;4.25;;;;;;;;3724741;37;20848;-61
2021/05/13 02:13:41;;;;;;;;;6.00;4.75;;;;;;;;3724716;38;17912;-62
2021/05/13 02:16:07;;;;;;;;;5.00;5.00;;;;;;;;3724767;38;17901;-62
2021/05/13 02:18:33;;;;;;;;;5.75;5.75;;;;;;;;3724603;37;20860;-62
2021/05/13 02:20:59;;;;;;;;;5.50;5.50;;;;;;;;3724776;38;17890;-62
2021/05/13 02:23:25;;;;;;;;;5.50;5.50;;;;;;;;3724677;38;17867;-62
2021/05/13 02:25:52;;;;;;;;;6.00;5.75;;;;;;;;3724209;37;20882;-62
2021/05/13 02:28:18;;;;;;;;;5.00;5.00;;;;;;;;3724655;38;20850;-62
2021/05/13 02:30:44;;;;;;;;;7.00;7.00;;;;;;;;3724660;37;20882;-61
2021/05/13 02:33:10;;;;;;;;;5.00;5.00;;;;;;;;3724106;38;20813;-60
2021/05/13 02:35:36;;;;;;;;;6.25;4.50;;;;;;;;3724512;38;20874;-62
2021/05/13 02:38:03;;;;;;;;;6.50;6.00;;;;;;;;3724618;37;21092;-61
2021/05/13 02:40:29;;;;;;;;;7.75;7.75;;;;;;;;3724679;37;20802;-61
2021/05/13 02:42:58;;;;;;;;;5.75;5.75;;;;;;;;3724071;38;20842;-61
2021/05/13 02:45:24;;;;;;;;;7.00;7.00;;;;;;;;3724684;38;20823;-62
2021/05/13 02:47:51;;;;;;;;;5.00;5.00;;;;;;;;3724233;37;20844;-62
2021/05/13 02:50:18;;;;;;;;;6.25;6.25;;;;;;;;3724767;38;17827;-61
2021/05/13 02:52:44;;;;;;;;;6.00;5.00;;;;;;;;3724110;37;20827;-60
2021/05/13 02:55:10;;;;;;;;;5.50;5.50;;;;;;;;3724477;37;20846;-61
2021/05/13 02:57:40;;;;;;;;;8.50;7.75;;;;;;;;3724696;37;17843;-61
2021/05/13 03:00:27;;;;;;;;;5.00;5.00;;;;;;;;3724571;37;20824;-61
2021/05/13 03:02:54;;;;;;;;;6.00;6.00;;;;;;;;3724656;37;20825;-61
2021/05/13 03:05:22;;;;;;;;;10.25;9.50;;;;;;;;3724303;37;20407;-60
2021/05/13 03:07:50;;;;;;;;;6.00;5.25;;;;;;;;3724832;38;20819;-62
2021/05/13 03:13:05;;;;;;;;;7.50;7.50;;;;;;;;3724667;37;20806;-60
2021/05/13 03:15:37;;;;;;;;;6.50;5.75;;;;;;;;3724340;37;20801;-60
2021/05/13 03:18:04;;;;;;;;;8.00;8.00;;;;;;;;3724369;37;20770;-61
2021/05/13 03:20:38;;;;;;;;;8.75;8.25;;;;;;;;3724230;38;20805;-60
2021/05/13 03:23:06;;;;;;;;;7.00;6.00;;;;;;;;3724721;37;20782;-61
2021/05/13 03:25:34;;;;;;;;;15.50;15.50;;;;;;;;3724566;38;20749;-62
2021/05/13 03:28:09;;;;;;;;;12.75;12.75;;;;;;;;3724758;38;20905;-62
2021/05/13 03:30:36;;;;;;;;;11.25;10.75;;;;;;;;3724762;38;20905;-60
2021/05/13 03:33:02;;;;;;;;;7.75;7.75;;;;;;;;3724841;38;20786;-61
2021/05/13 03:35:30;;;;;;;;;11.00;11.00;;;;;;;;3724716;37;20698;-60
2021/05/13 03:37:56;;;;;;;;;10.75;9.50;;;;;;;;3724984;38;20878;-61
2021/05/13 03:40:22;;;;;;;;;9.50;9.50;;;;;;;;3724672;37;20736;-61
2021/05/13 03:42:47;;;;;;;;;7.25;6.50;;;;;;;;3724842;38;20751;-62
2021/05/13 03:45:14;;;;;;;;;5.00;5.00;;;;;;;;3725183;38;17767;-61
2021/05/13 03:47:40;;;;;;;;;13.75;12.25;;;;;;;;3724500;37;17764;-64
2021/05/13 03:50:06;;;;;;;;;12.00;12.00;;;;;;;;3725692;38;20824;-62
2021/05/13 03:52:32;;;;;;;;;8.00;6.25;;;;;;;;3724687;38;17765;-62
2021/05/13 03:54:58;;;;;;;;;7.25;6.75;;;;;;;;3724650;37;20750;-63
2021/05/13 03:57:28;;;;;;;;;4.50;4.50;;;;;;;;3727856;38;39344;-64
2021/05/13 03:59:57;;;;;;;;;7.75;6.00;;;;;;;;3728180;37;20979;-62
2021/05/13 04:02:35;;;;;;;;;9.00;9.00;;;;;;;;3727727;37;20945;-64
2021/05/13 04:05:02;;;;;;;;;5.75;5.75;;;;;;;;3727599;37;20922;-61
2021/05/13 04:07:32;;;;;;;;;5.50;5.50;;;;;;;;3727494;38;20967;-64
2021/05/13 04:09:58;;;;;;;;;9.50;9.50;;;;;;;;3727585;37;20992;-63
2021/05/13 04:12:24;;;;;;;;;7.25;7.00;;;;;;;;3727747;37;21003;-63
2021/05/13 04:14:50;;;;;;;;;5.00;5.00;;;;;;;;3727603;38;18303;-62
2021/05/13 04:17:17;;;;;;;;;6.00;5.00;;;;;;;;3727385;37;20956;-63
2021/05/13 04:19:43;;;;;;;;;6.25;6.25;;;;;;;;3727658;38;20965;-63
2021/05/13 04:22:09;;;;;;;;;9.50;9.25;;;;;;;;3727481;37;20955;-64
2021/05/13 04:24:35;;;;;;;;;6.00;6.00;;;;;;;;3727531;37;20929;-62
2021/05/13 04:27:00;;;;;;;;;5.00;4.25;;;;;;;;3727543;38;18281;-62
2021/05/13 04:29:26;;;;;;;;;7.75;7.00;;;;;;;;3727592;38;18260;-63
2021/05/13 04:31:52;;;;;;;;;9.00;9.00;;;;;;;;3727718;38;18255;-62
2021/05/13 04:34:18;;;;;;;;;11.75;11.75;;;;;;;;3727679;37;18272;-63
2021/05/13 04:36:43;;;;;;;;;5.75;5.75;;;;;;;;3727863;37;18281;-61
2021/05/13 04:39:11;;;;;;;;;5.50;4.75;;;;;;;;3727996;38;18571;-62
2021/05/13 04:41:37;;;;;;;;;4.75;4.75;;;;;;;;3727907;38;18251;-62
2021/05/13 04:44:04;;;;;;;;;5.00;5.00;;;;;;;;3727862;38;20948;-63
2021/05/13 04:46:31;;;;;;;;;7.25;7.25;;;;;;;;3730301;37;20919;-62
2021/05/13 04:51:45;;;;;;;;;7.00;7.00;;;;;;;;3728512;37;20909;-62
2021/05/13 04:54:15;;;;;;;;;6.00;6.00;;;;;;;;3728613;37;20933;-62
2021/05/13 04:56:41;;;;;;;;;8.25;8.25;;;;;;;;3728160;38;20899;-63
2021/05/13 04:59:07;;;;;;;;;5.00;5.00;;;;;;;;3728330;37;20896;-63
2021/05/13 05:01:32;;;;;;;;;11.00;8.00;;;;;;;;3728375;38;20929;-63
2021/05/13 05:03:58;;;;;;;;;4.75;4.75;;;;;;;;3728318;38;18226;-62
2021/05/13 05:06:24;;;;;;;;;9.00;8.50;;;;;;;;3728699;37;18247;-63
2021/05/13 05:08:50;;;;;;;;;5.50;5.00;;;;;;;;3727956;37;18237;-63
2021/05/13 05:11:19;;;;;;;;;7.00;7.00;;;;;;;;3728551;38;18226;-63
2021/05/13 05:13:45;;;;;;;;;5.00;4.75;;;;;;;;3728196;38;20871;-61
2021/05/13 05:16:10;;;;;;;;;10.00;10.00;;;;;;;;3728350;38;20910;-61
2021/05/13 05:18:36;;;;;;;;;6.50;6.50;;;;;;;;3728336;37;18203;-62
2021/05/13 05:21:02;;;;;;;;;16.75;16.75;;;;;;;;3728617;38;18226;-63
2021/05/13 05:23:29;;;;;;;;;6.00;6.00;;;;;;;;3728457;38;18198;-62
2021/05/13 05:25:56;;;;;;;;;5.75;5.00;;;;;;;;3728451;37;18200;-63
2021/05/13 05:28:25;;;;;;;;;4.50;3.00;;;;;;;;3728382;38;20877;-63
2021/05/13 05:30:50;;;;;;;;;9.75;9.75;;;;;;;;3727906;37;21179;-62
2021/05/13 05:33:16;;;;;;;;;4.50;4.50;;;;;;;;3728120;37;20903;-63
2021/05/13 05:35:42;;;;;;;;;17.75;13.75;;;;;;;;3728365;37;18194;-62
2021/05/13 05:38:08;;;;;;;;;6.75;6.50;;;;;;;;3727993;37;18183;-61
2021/05/13 05:40:34;;;;;;;;;4.50;4.50;;;;;;;;3727615;37;20859;-63
2021/05/13 05:43:00;;;;;;;;;3.00;3.00;;;;;;;;3727467;37;20834;-62
2021/05/13 05:45:27;;;;;;;;;5.00;5.00;;;;;;;;3727102;38;20833;-62
2021/05/13 05:47:59;;;;;;;;;4.75;4.75;;;;;;;;3726954;37;18192;-61
2021/05/13 05:50:26;;;;;;;;;6.00;5.25;;;;;;;;3727247;37;20847;-62
2021/05/13 05:52:52;;;;;;;;;4.00;4.00;;;;;;;;3727046;38;20834;-61
2021/05/13 05:55:18;;;;;;;;;4.50;4.50;;;;;;;;3727304;37;20835;-62
2021/05/13 05:57:44;;;;;;;;;6.00;5.50;;;;;;;;3727890;37;18158;-63
2021/05/13 06:00:10;;;;;;;;;4.25;4.25;;;;;;;;3729090;37;18147;-61
2021/05/13 06:02:35;;;;;;;;;22.25;21.75;;;;;;;;3727706;37;18130;-62
2021/05/13 06:05:02;;;;;;;;;7.00;5.00;;;;;;;;3727563;38;20933;-62
2021/05/13 06:07:28;;;;;;;;;4.00;4.00;;;;;;;;3727746;38;18165;-63
2021/05/13 06:09:56;;;;;;;;;8.75;8.75;;;;;;;;3727854;37;20822;-63
2021/05/13 06:12:22;;;;;;;;;6.00;6.00;;;;;;;;3728293;37;18150;-62
2021/05/13 06:14:48;;;;;;;;;5.00;4.00;;;;;;;;3727496;38;20795;-61
2021/05/13 06:17:14;;;;;;;;;3.25;3.25;;;;;;;;3727783;37;20817;-61
2021/05/13 06:19:40;;;;;;;;;4.50;4.25;;;;;;;;3727596;37;18115;-60
2021/05/13 06:22:05;;;;;;;;;3.00;3.00;;;;;;;;3727576;37;18140;-60
2021/05/13 06:24:32;;;;;;;;;3.00;3.00;;;;;;;;3727857;37;18119;-61
2021/05/13 06:26:59;;;;;;;;;5.00;4.50;;;;;;;;3727709;38;18116;-60
2021/05/13 06:29:27;;;;;;;;;2.00;2.00;;;;;;;;3727307;38;20880;-61
2021/05/13 06:31:53;;;;;;;;;4.50;4.00;;;;;;;;3727624;38;20788;-59
2021/05/13 06:34:32;;;;;;;;;1.25;1.25;;;;;;;;3727416;37;20877;-59
2021/05/13 06:37:00;;;;;;;;;3.00;3.00;;;;;;;;3727475;38;20876;-60
2021/05/13 06:39:27;;;;;;;;;16.00;16.00;;;;;;;;3727631;38;20859;-62
2021/05/13 06:41:53;;;;;;;;;7.00;7.00;;;;;;;;3727808;37;20797;-61
2021/05/13 06:44:20;;;;;;;;;4.50;3.25;;;;;;;;3727926;37;20779;-59
2021/05/13 06:46:46;;;;;;;;;4.25;4.00;;;;;;;;3727528;37;20766;-62
2021/05/13 06:49:12;;;;;;;;;3.00;3.00;;;;;;;;3727489;37;20845;-61
2021/05/13 06:51:39;;;;;;;;;2.00;2.00;;;;;;;;3727723;38;18088;-62
2021/05/13 06:54:06;;;;;;;;;7.50;5.75;;;;;;;;3727699;37;18088;-63
2021/05/13 06:56:32;;;;;;;;;5.00;5.00;;;;;;;;3727384;37;20758;-62
2021/05/13 06:58:58;;;;;;;;;5.00;4.00;;;;;;;;3727490;37;20755;-62
2021/05/13 07:01:24;;;;;;;;;3.50;3.50;;;;;;;;3727596;37;18073;-60
2021/05/13 07:03:50;;;;;;;;;4.00;3.00;;;;;;;;3727673;37;20824;-60
2021/05/13 07:06:15;;;;;;;;;4.75;4.75;;;;;;;;3727650;38;18068;-62
2021/05/13 07:08:41;;;;;;;;;6.00;5.75;;;;;;;;3727991;37;18056;-61
2021/05/13 07:11:07;;;;;;;;;5.50;5.50;;;;;;;;3727697;37;18072;-61
2021/05/13 07:13:33;;;;;;;;;3.00;3.00;;;;;;;;3727602;38;18063;-61
2021/05/13 07:15:59;;;;;;;;;5.00;4.00;;;;;;;;3727686;37;18039;-62
2021/05/13 07:18:25;;;;;;;;;3.00;3.00;;;;;;;;3727564;38;20741;-62
2021/05/13 07:20:51;;;;;;;;;3.50;3.50;;;;;;;;3727655;38;18031;-62
2021/05/13 07:23:17;;;;;;;;;6.00;5.50;;;;;;;;3727680;38;20709;-63
2021/05/13 07:25:43;;;;;;;;;7.00;6.75;;;;;;;;3727575;38;18031;-63
2021/05/13 07:28:09;;;;;;;;;8.00;6.25;;;;;;;;3727739;38;18055;-61
2021/05/13 07:30:36;;;;;;;;;8.25;7.75;;;;;;;;3726819;38;20736;-63
2021/05/13 07:33:02;;;;;;;;;6.25;5.75;;;;;;;;3727503;38;20706;-62
2021/05/13 07:35:28;;;;;;;;;8.00;8.00;;;;;;;;3727528;37;20703;-64
2021/05/13 07:37:56;;;;;;;;;4.75;4.75;;;;;;;;3727742;38;20739;-63
2021/05/13 07:40:23;;;;;;;;;8.50;7.75;;;;;;;;3727539;38;20750;-62
2021/05/13 07:42:49;;;;;;;;;9.00;8.25;;;;;;;;3727692;37;20695;-62
2021/05/13 07:45:16;;;;;;;;;6.25;5.25;;;;;;;;3727828;37;20698;-63
2021/05/13 07:47:43;;;;;;;;;6.25;6.25;;;;;;;;3727573;38;20678;-62
2021/05/13 07:50:11;;;;;;;;;4.00;4.00;;;;;;;;3727664;37;20694;-63
2021/05/13 07:52:37;;;;;;;;;14.50;14.50;;;;;;;;3727343;38;20649;-62
2021/05/13 07:55:06;;;;;;;;;7.00;6.50;;;;;;;;3727661;37;20744;-62
2021/05/13 07:57:32;;;;;;;;;5.50;5.50;;;;;;;;3727232;37;21031;-63
2021/05/13 08:00:06;;;;;;;;;5.00;4.00;;;;;;;;3727743;37;21212;-63
2021/05/13 08:02:33;;;;;;;;;5.00;4.75;;;;;;;;3727252;38;18015;-63
2021/05/13 08:04:59;;;;;;;;;6.00;5.00;;;;;;;;3727494;38;21189;-62
2021/05/13 08:07:24;;;;;;;;;5.00;5.00;;;;;;;;3727549;38;20985;-64
2021/05/13 08:09:51;;;;;;;;;5.50;4.00;;;;;;;;3727465;37;18010;-63
2021/05/13 08:12:17;;;;;;;;;9.00;9.00;;;;;;;;3727463;37;18021;-62
2021/05/13 08:14:44;;;;;;;;;4.00;4.00;;;;;;;;3727411;37;21079;-62
2021/05/13 08:17:11;;;;;;;;;5.00;5.00;;;;;;;;3727432;37;21008;-62
2021/05/13 08:19:37;;;;;;;;;5.25;4.75;;;;;;;;3727418;37;21162;-63
2021/05/13 08:22:02;;;;;;;;;5.00;5.00;;;;;;;;3727458;38;21008;-63
2021/05/13 08:24:28;;;;;;;;;3.75;3.75;;;;;;;;3727108;37;17995;-61
2021/05/13 08:26:56;;;;;;;;;8.00;8.00;;;;;;;;3727553;38;21015;-61
2021/05/13 08:29:22;;;;;;;;;6.00;5.25;;;;;;;;3727651;37;18011;-61
2021/05/13 08:31:49;;;;;;;;;6.75;6.00;;;;;;;;3727676;38;20975;-63
2021/05/13 08:34:18;;;;;;;;;5.00;4.50;;;;;;;;3727507;38;21141;-63
2021/05/13 08:36:45;;;;;;;;;5.50;5.00;;;;;;;;3727496;37;21156;-62
2021/05/13 08:39:10;;;;;;;;;7.25;7.25;;;;;;;;3727024;38;20919;-63
2021/05/13 08:41:36;;;;;;;;;5.00;5.00;;;;;;;;3727120;37;20881;-63
2021/05/13 08:44:03;;;;;;;;;6.00;6.00;;;;;;;;3724883;37;17959;-63
2021/05/13 08:46:29;;;;;;;;;6.50;5.50;;;;;;;;3726400;38;20967;-63
2021/05/13 08:49:00;;;;;;;;;5.00;4.50;;;;;;;;3725330;38;21121;-62
2021/05/13 08:51:26;;;;;;;;;6.25;6.25;;;;;;;;3725853;37;20974;-62
2021/05/13 08:53:53;;;;;;;;;8.50;8.50;;;;;;;;3724967;37;20939;-62
2021/05/13 08:56:20;;;;;;;;;5.75;5.75;;;;;;;;3724993;37;17944;-63
2021/05/13 08:58:50;;;;;;;;;4.25;4.25;;;;;;;;3726238;38;20940;-64
2021/05/13 09:01:16;;;;;;;;;6.00;6.00;;;;;;;;3724321;37;21117;-63
2021/05/13 09:03:43;;;;;;;;;5.25;5.25;;;;;;;;3724805;37;20948;-63
2021/05/13 09:06:17;;;;;;;;;5.25;4.25;;;;;;;;3724491;38;21108;-62
2021/05/13 09:08:43;;;;;;;;;5.25;5.25;;;;;;;;3724428;38;20909;-62
2021/05/13 09:11:12;;;;;;;;;4.00;4.00;;;;;;;;3724522;38;20909;-62
2021/05/13 09:13:39;;;;;;;;;32.25;31.25;;;;;;;;3724561;37;17933;-62
2021/05/13 09:16:31;;;;;;;;;7.00;6.00;;;;;;;;3724509;38;21004;-62
2021/05/13 09:18:57;;;;;;;;;6.00;5.25;;;;;;;;3724430;37;20945;-62
2021/05/13 09:21:24;;;;;;;;;5.50;4.75;;;;;;;;3724067;37;20867;-62
2021/05/13 09:23:50;;;;;;;;;5.25;5.00;;;;;;;;3724685;37;20904;-62
2021/05/13 09:26:20;;;;;;;;;6.75;6.00;;;;;;;;3724402;38;21075;-62
2021/05/13 09:28:48;;;;;;;;;4.00;4.00;;;;;;;;3724013;37;20881;-63
2021/05/13 09:31:33;;;;;;;;;6.00;6.00;;;;;;;;3724344;37;20894;-62
2021/05/13 09:34:06;;;;;;;;;5.25;5.25;;;;;;;;3724352;37;21055;-62
2021/05/13 09:36:31;;;;;;;;;5.25;5.00;;;;;;;;3724498;37;21044;-62
2021/05/13 09:38:57;;;;;;;;;7.00;7.00;;;;;;;;3724567;38;20869;-62
2021/05/13 09:41:36;;;;;;;;;7.75;7.50;;;;;;;;3724622;38;17947;-62
2021/05/13 09:44:08;;;;;;;;;6.25;6.25;;;;;;;;3724751;38;17887;-63
2021/05/13 09:46:37;;;;;;;;;6.00;5.00;;;;;;;;3724562;37;20878;-62
2021/05/13 09:49:03;;;;;;;;;10.00;10.00;;;;;;;;3724658;37;21032;-62
2021/05/13 09:51:49;;;;;;;;;5.25;5.25;;;;;;;;3724271;37;20935;-62
2021/05/13 09:54:17;;;;;;;;;7.00;7.00;;;;;;;;3724402;37;20864;-62
2021/05/13 09:56:46;;;;;;;;;6.50;6.50;;;;;;;;3724452;37;20779;-63
2021/05/13 09:59:27;;;;;;;;;6.00;6.00;;;;;;;;3724469;37;20900;-63
2021/05/13 10:01:54;;;;;;;;;6.00;6.00;;;;;;;;3724508;38;21044;-62
2021/05/13 10:04:19;;;;;;;;;5.25;5.00;;;;;;;;3724653;37;21018;-63
2021/05/13 10:06:47;;;;;;;;;4.00;4.00;;;;;;;;3724684;38;21012;-63
2021/05/13 10:09:16;;;;;;;;;6.00;5.00;;;;;;;;3724523;38;17843;-64
2021/05/13 10:11:42;;;;;;;;;5.00;5.00;;;;;;;;3724551;38;21024;-61
2021/05/13 10:14:09;;;;;;;;;5.00;5.00;;;;;;;;3724460;38;20994;-61
2021/05/13 10:16:35;;;;;;;;;8.00;5.00;;;;;;;;3724618;38;20830;-60
2021/05/13 10:19:05;;;;;;;;;6.50;5.25;;;;;;;;3724610;37;21018;-61
2021/05/13 10:21:31;;;;;;;;;6.25;6.25;;;;;;;;3724712;37;21021;-61
2021/05/13 10:23:58;;;;;;;;;4.00;4.00;;;;;;;;3724713;37;21008;-61
2021/05/13 10:26:52;;;;;;;;;12.75;11.75;;;;;;;;3724830;37;20759;-62
2021/05/13 10:29:44;;;;;;;;;5.00;5.00;;;;;;;;3724658;38;20954;-62
2021/05/13 10:32:19;;;;;;;;;3.25;3.25;;;;;;;;3724432;37;21001;-62
2021/05/13 10:34:48;;;;;;;;;4.00;4.00;;;;;;;;3724814;38;20837;-61
2021/05/13 10:37:19;;;;;;;;;6.00;6.00;;;;;;;;3724545;37;20964;-61
2021/05/13 10:40:03;;;;;;;;;6.75;6.75;;;;;;;;3724585;37;20981;-60
2021/05/13 10:42:30;;;;;;;;;3.00;3.00;;;;;;;;3724448;37;21001;-61
2021/05/13 10:44:55;;;;;;;;;6.50;5.50;;;;;;;;3724460;37;20827;-60
2021/05/13 10:47:28;;;;;;;;;7.25;5.50;;;;;;;;3724474;37;20815;-62
2021/05/13 10:49:55;;;;;;;;;7.25;7.25;;;;;;;;3724711;37;17806;-63
2021/05/13 10:52:34;;;;;;;;;5.75;4.75;;;;;;;;3724660;37;20957;-62
2021/05/13 10:55:01;;;;;;;;;5.00;5.00;;;;;;;;3724752;37;20960;-60
2021/05/13 10:57:27;;;;;;;;;4.50;4.50;;;;;;;;3724635;37;20968;-61
2021/05/13 11:00:25;;;;;;;;;6.00;6.00;;;;;;;;3724540;38;20951;-60
2021/05/13 11:02:51;;;;;;;;;5.50;5.50;;;;;;;;3724710;37;20964;-61
2021/05/13 11:05:48;;;;;;;;;6.25;6.25;;;;;;;;3724446;38;20940;-60
2021/05/13 11:08:31;;;;;;;;;3.00;2.00;;;;;;;;3724627;37;20787;-62
2021/05/13 11:11:02;;;;;;;;;5.75;5.50;;;;;;;;3724742;38;20956;-62
2021/05/13 11:13:41;;;;;;;;;6.50;5.75;;;;;;;;3724755;37;20944;-60
2021/05/13 11:16:06;;;;;;;;;9.75;6.75;;;;;;;;3724741;38;20943;-63
2021/05/13 11:18:33;;;;;;;;;6.25;6.25;;;;;;;;3724766;37;20933;-60
2021/05/13 11:20:59;;;;;;;;;4.00;4.00;;;;;;;;3724718;37;20795;-63
2021/05/13 11:23:34;;;;;;;;;6.00;5.50;;;;;;;;3724655;38;20915;-60
2021/05/13 11:26:01;;;;;;;;;6.00;6.00;;;;;;;;3724570;38;20870;-62
2021/05/13 11:28:57;;;;;;;;;1.00;1.00;;;;;;;;3724056;38;20922;-62
2021/05/13 11:31:23;;;;;;;;;4.00;4.00;;;;;;;;3725535;38;20754;-61
2021/05/13 11:33:56;;;;;;;;;5.00;5.00;;;;;;;;3724884;37;20883;-61
2021/05/13 11:36:28;;;;;;;;;4.00;4.00;;;;;;;;3724774;38;17729;-61
2021/05/13 11:39:13;;;;;;;;;3.00;3.00;;;;;;;;3724473;37;20891;-60
2021/05/13 11:41:42;;;;;;;;;3.75;3.75;;;;;;;;3724855;38;20952;-62
2021/05/13 11:44:08;;;;;;;;;4.00;4.00;;;;;;;;3725069;38;20877;-60
2021/05/13 11:46:36;;;;;;;;;4.00;4.00;;;;;;;;3724654;38;20898;-60
2021/05/13 11:49:03;;;;;;;;;4.25;4.25;;;;;;;;3724638;37;20889;-61
2021/05/13 11:51:32;;;;;;;;;4.00;4.00;;;;;;;;3724647;37;20717;-61
2021/05/13 11:54:00;;;;;;;;;3.50;3.50;;;;;;;;3724651;37;20962;-62
2021/05/13 11:56:38;;;;;;;;;3.50;3.25;;;;;;;;3724575;37;20883;-63
2021/05/13 11:59:08;;;;;;;;;7.00;6.25;;;;;;;;3724761;37;20878;-65
2021/05/13 12:01:35;;;;;;;;;4.25;4.25;;;;;;;;3724678;37;20721;-62
2021/05/13 12:04:22;;;;;;;;;4.00;4.00;;;;;;;;3724366;38;20870;-61
2021/05/13 12:07:02;;;;;;;;;4.00;4.00;;;;;;;;3724662;38;20886;-61
2021/05/13 12:09:31;;;;;;;;;6.00;5.25;;;;;;;;3724738;38;20849;-61
2021/05/13 12:12:04;;;;;;;;;6.00;5.50;;;;;;;;3724716;37;20840;-63
2021/05/13 12:14:31;;;;;;;;;6.00;6.00;;;;;;;;3724675;37;20544;-60
2021/05/13 12:16:59;;;;;;;;;5.25;5.25;;;;;;;;3724450;38;20843;-62
2021/05/13 12:19:27;;;;;;;;;5.25;5.25;;;;;;;;3724786;37;20688;-61
2021/05/13 12:21:57;;;;;;;;;4.25;4.25;;;;;;;;3724118;38;20690;-62
2021/05/13 12:24:37;;;;;;;;;5.00;5.00;;;;;;;;3724749;37;20838;-61
2021/05/13 12:27:04;;;;;;;;;5.00;4.00;;;;;;;;3724688;38;20855;-62
2021/05/13 12:29:30;;;;;;;;;4.00;4.00;;;;;;;;3724825;38;20826;-61
2021/05/13 12:31:56;;;;;;;;;4.75;4.75;;;;;;;;3724659;37;20665;-62
2021/05/13 12:34:32;;;;;;;;;5.25;5.00;;;;;;;;3724745;38;20668;-61
2021/05/13 12:37:01;;;;;;;;;8.75;7.25;;;;;;;;3724786;38;17662;-62
2021/05/13 12:39:34;;;;;;;;;5.50;5.50;;;;;;;;3724495;37;21614;-61
2021/05/13 12:42:00;;;;;;;;;6.25;6.25;;;;;;;;3724797;38;20665;-62
2021/05/13 12:44:27;;;;;;;;;7.75;7.75;;;;;;;;3724692;38;21802;-62
2021/05/13 12:46:54;;;;;;;;;6.00;5.00;;;;;;;;3725094;37;18637;-63
2021/05/13 12:49:37;;;;;;;;;7.25;7.25;;;;;;;;3724797;37;21603;-62
2021/05/13 12:52:08;;;;;;;;;8.00;8.00;;;;;;;;3724710;38;20283;-60
2021/05/13 12:54:36;;;;;;;;;7.75;7.75;;;;;;;;3724761;37;21649;-61
2021/05/13 12:57:15;;;;;;;;;9.00;9.00;;;;;;;;3724521;38;21598;-60
2021/05/13 12:59:43;;;;;;;;;9.75;9.00;;;;;;;;3724611;38;21621;-61
2021/05/13 13:02:19;;;;;;;;;9.00;8.00;;;;;;;;3724265;38;21565;-61
2021/05/13 13:04:52;;;;;;;;;9.25;9.00;;;;;;;;3724585;38;21579;-61
2021/05/13 13:07:18;;;;;;;;;7.25;7.00;;;;;;;;3724787;37;21583;-60
2021/05/13 13:09:44;;;;;;;;;8.50;8.50;;;;;;;;3724588;37;21469;-61
2021/05/13 13:12:14;;;;;;;;;8.25;7.50;;;;;;;;3724681;37;21586;-61
2021/05/13 13:14:43;;;;;;;;;7.75;7.75;;;;;;;;3724719;37;18614;-61
2021/05/13 13:17:42;;;;;;;;;7.50;7.50;;;;;;;;3724583;37;21613;-61
2021/05/13 13:20:13;;;;;;;;;8.00;8.00;;;;;;;;3724728;37;21570;-62
2021/05/13 13:22:39;;;;;;;;;7.00;7.00;;;;;;;;3724839;38;21615;-63
2021/05/13 13:25:06;;;;;;;;;6.00;6.00;;;;;;;;3724568;37;21610;-60
2021/05/13 13:27:42;;;;;;;;;9.00;9.00;;;;;;;;3724697;37;21637;-62
2021/05/13 13:30:12;;;;;;;;;7.00;7.00;;;;;;;;3724726;38;21540;-62
2021/05/13 13:32:40;;;;;;;;;8.00;8.00;;;;;;;;3724426;38;21563;-62
2021/05/13 13:35:08;;;;;;;;;7.75;7.75;;;;;;;;3724612;37;21528;-63
2021/05/13 13:37:35;;;;;;;;;8.00;8.00;;;;;;;;3724698;37;21541;-62
2021/05/13 13:40:03;;;;;;;;;10.25;9.75;;;;;;;;3724370;37;21521;-62
2021/05/13 13:42:30;;;;;;;;;8.75;8.75;;;;;;;;3724714;37;21629;-62
2021/05/13 13:44:57;;;;;;;;;8.75;8.50;;;;;;;;3725658;37;21588;-60
2021/05/13 13:47:24;;;;;;;;;7.25;7.25;;;;;;;;3726264;38;21615;-61
2021/05/13 13:49:57;;;;;;;;;7.00;7.00;;;;;;;;3726815;37;21521;-61
2021/05/13 13:52:23;;;;;;;;;7.00;7.00;;;;;;;;3727354;37;21558;-62
2021/05/13 13:54:49;;;;;;;;;7.00;7.00;;;;;;;;3727153;37;21530;-62
2021/05/13 13:57:15;;;;;;;;;8.00;7.25;;;;;;;;3727072;38;18563;-62
2021/05/13 13:59:41;;;;;;;;;9.00;9.00;;;;;;;;3726553;37;18644;-62
2021/05/13 14:02:06;;;;;;;;;7.50;6.75;;;;;;;;3725870;38;18531;-62
2021/05/13 14:04:32;;;;;;;;;13.00;12.25;;;;;;;;3724816;37;21501;-61
2021/05/13 14:06:58;;;;;;;;;6.25;6.25;;;;;;;;3724906;38;18553;-61
2021/05/13 14:09:24;;;;;;;;;9.00;9.00;;;;;;;;3725250;37;18528;-60
2021/05/13 14:11:50;;;;;;;;;9.00;9.00;;;;;;;;3726686;38;18528;-61
2021/05/13 14:14:16;;;;;;;;;7.50;7.50;;;;;;;;3726462;38;18532;-61
2021/05/13 14:16:43;;;;;;;;;7.50;7.50;;;;;;;;3724322;37;21515;-62
2021/05/13 14:19:08;;;;;;;;;10.50;9.50;;;;;;;;3724226;37;21477;-61
2021/05/13 14:21:34;;;;;;;;;7.25;7.25;;;;;;;;3724839;38;21561;-61
2021/05/13 14:24:03;;;;;;;;;10.50;10.50;;;;;;;;3724884;37;18533;-61
2021/05/13 14:26:29;;;;;;;;;10.00;9.50;;;;;;;;3724639;38;18523;-62
2021/05/13 14:28:57;;;;;;;;;7.75;7.75;;;;;;;;3724802;37;21258;-61
2021/05/13 14:31:24;;;;;;;;;9.00;9.00;;;;;;;;3725191;37;18521;-61
2021/05/13 14:33:49;;;;;;;;;9.25;8.25;;;;;;;;3724172;37;21566;-62
2021/05/13 14:36:15;;;;;;;;;7.00;6.50;;;;;;;;3724552;37;21454;-64
2021/05/13 14:38:41;;;;;;;;;11.25;10.25;;;;;;;;3724480;37;18478;-63
2021/05/13 14:41:07;;;;;;;;;8.00;7.25;;;;;;;;3724352;37;18526;-64
2021/05/13 14:43:35;;;;;;;;;8.50;8.50;;;;;;;;3724734;38;21420;-62
2021/05/13 14:46:00;;;;;;;;;6.25;6.00;;;;;;;;3725068;37;18480;-63
2021/05/13 14:48:33;;;;;;;;;9.75;9.00;;;;;;;;3724705;37;21425;-62
2021/05/13 14:50:59;;;;;;;;;10.25;10.25;;;;;;;;3724537;38;18487;-62
2021/05/13 14:53:26;;;;;;;;;13.75;11.25;;;;;;;;3724614;37;21499;-62
2021/05/13 14:55:52;;;;;;;;;11.75;11.75;;;;;;;;3724529;38;18447;-61
2021/05/13 14:58:18;;;;;;;;;16.00;15.25;;;;;;;;3724665;37;21511;-62